Time;durP1;ratioP1;P1;durP2;ratioP2;P2;SDS_P1;SDS_P2;PMS_P1;PMS_P2;Temp;Humidity;BMP_temperature;BMP_pressure;BME280_temperature;BME280_humidity;BME280_pressure;Samples;Min_cycle;Max_cycle;Signal;HPM_P1;HPM_P2
2022/09/24 00:01:47;;;;;;;34.05;22.85;;;13.70;99.90;;;;;;4972380;28;20030;-75
2022/09/24 00:04:12;;;;;;;33.90;23.95;;;13.70;99.90;;;;;;4971839;28;20487;-74
2022/09/24 00:06:44;;;;;;;33.97;23.35;;;13.70;99.90;;;;;;4972824;28;20070;-74
2022/09/24 00:09:15;;;;;;;34.75;23.83;;;13.70;99.90;;;;;;4971969;28;20031;-75
2022/09/24 00:11:44;;;;;;;40.42;24.88;;;13.70;99.90;;;;;;4971803;28;20570;-74
2022/09/24 00:14:10;;;;;;;38.47;25.35;;;13.70;99.90;;;;;;4972247;28;20027;-76
2022/09/24 00:16:38;;;;;;;36.45;24.63;;;13.70;99.90;;;;;;4970622;28;20027;-74
2022/09/24 00:19:04;;;;;;;34.70;24.33;;;13.60;99.90;;;;;;4972264;28;20034;-75
2022/09/24 00:21:32;;;;;;;35.80;25.40;;;13.60;99.90;;;;;;4970536;28;20098;-75
2022/09/24 00:24:00;;;;;;;36.30;24.95;;;13.70;99.90;;;;;;4972254;28;20554;-75
2022/09/24 00:29:16;;;;;;;39.60;24.95;;;13.60;99.90;;;;;;4971059;28;20045;-75
2022/09/24 00:31:41;;;;;;;38.95;26.38;;;13.60;99.90;;;;;;4971436;28;20470;-75
2022/09/24 00:34:07;;;;;;;36.67;25.08;;;13.60;99.90;;;;;;4972150;28;20061;-74
2022/09/24 00:36:33;;;;;;;36.35;24.35;;;13.60;99.90;;;;;;4971023;28;20494;-75
2022/09/24 00:38:59;;;;;;;40.92;25.98;;;13.60;99.90;;;;;;4972134;28;20027;-74
2022/09/24 00:41:30;;;;;;;38.97;26.90;;;13.60;99.90;;;;;;4971874;28;20038;-75
2022/09/24 00:43:56;;;;;;;42.25;26.95;;;13.60;99.90;;;;;;4972178;28;20037;-74
2022/09/24 00:46:42;;;;;;;40.50;28.30;;;13.50;99.90;;;;;;4970923;28;20027;-75
2022/09/24 00:49:13;;;;;;;41.95;28.60;;;13.60;99.90;;;;;;4981859;28;20122;-75
2022/09/24 00:51:41;;;;;;;42.55;28.00;;;13.50;99.90;;;;;;4989031;28;20124;-75
2022/09/24 00:54:14;;;;;;;43.97;28.52;;;13.50;99.90;;;;;;4972061;28;20019;-75
2022/09/24 00:56:40;;;;;;;;;;;13.50;99.90;;;;;;4971612;28;20066;-75
2022/09/24 00:59:10;;;;;;;41.20;26.85;;;13.40;99.90;;;;;;4971291;28;19911;-75
2022/09/24 01:01:36;;;;;;;43.05;27.92;;;13.40;99.90;;;;;;4971691;28;20019;-75
2022/09/24 01:04:03;;;;;;;43.17;27.55;;;13.40;99.90;;;;;;4974208;28;20027;-75
2022/09/24 01:06:29;;;;;;;41.72;27.75;;;13.30;99.90;;;;;;4975126;28;20488;-75
2022/09/24 01:08:57;;;;;;;42.33;27.33;;;13.40;99.90;;;;;;4975220;28;20114;-75
2022/09/24 01:11:46;;;;;;;43.03;28.40;;;13.30;99.90;;;;;;4974424;28;20034;-75
2022/09/24 01:14:38;;;;;;;39.90;27.33;;;13.30;99.90;;;;;;4982221;28;20027;-75
2022/09/24 01:17:15;;;;;;;38.17;25.40;;;13.30;99.90;;;;;;4973763;28;20517;-75
2022/09/24 01:20:08;;;;;;;40.13;26.52;;;13.20;99.90;;;;;;4975397;28;20035;-75
2022/09/24 01:22:56;;;;;;;38.33;26.23;;;13.20;99.90;;;;;;4975480;28;20447;-74
2022/09/24 01:25:49;;;;;;;36.47;23.77;;;13.20;99.90;;;;;;4975197;28;20019;-75
2022/09/24 01:28:14;;;;;;;;;;;13.20;99.90;;;;;;4972690;28;20034;-75
2022/09/24 01:30:41;;;;;;;34.13;23.23;;;13.10;99.90;;;;;;4975172;28;19910;-75
2022/09/24 01:33:15;;;;;;;35.83;22.85;;;13.10;99.90;;;;;;4966038;28;20059;-75
2022/09/24 01:35:43;;;;;;;34.05;23.10;;;13.20;99.90;;;;;;4954843;29;20039;-75
2022/09/24 01:38:14;;;;;;;34.03;22.85;;;13.10;99.90;;;;;;4967798;28;20494;-75
2022/09/24 01:40:41;;;;;;;33.85;22.52;;;13.10;99.90;;;;;;4988661;28;20031;-75
2022/09/24 01:43:09;;;;;;;33.50;22.58;;;13.10;99.90;;;;;;4974857;28;20023;-75
2022/09/24 01:45:37;;;;;;;30.90;21.67;;;13.10;99.90;;;;;;4974983;28;20027;-75
2022/09/24 01:48:04;;;;;;;37.75;23.15;;;13.10;99.90;;;;;;4975166;28;20105;-75
2022/09/24 01:50:44;;;;;;;34.15;22.73;;;13.10;99.90;;;;;;4974044;28;20019;-75
2022/09/24 01:53:15;;;;;;;32.00;21.80;;;13.10;99.90;;;;;;4973834;28;20492;-76
2022/09/24 01:55:48;;;;;;;31.98;21.08;;;13.10;99.90;;;;;;4975095;28;20162;-75
2022/09/24 01:58:26;;;;;;;30.17;21.30;;;13.00;99.90;;;;;;4974673;28;20030;-75
2022/09/24 02:00:58;;;;;;;34.20;22.02;;;13.00;99.90;;;;;;4974445;28;20019;-75
2022/09/24 02:03:30;;;;;;;34.40;21.60;;;13.00;99.90;;;;;;4974336;28;20475;-75
2022/09/24 02:06:08;;;;;;;29.48;20.27;;;13.00;99.90;;;;;;4971973;28;20705;-75
2022/09/24 02:08:40;;;;;;;27.45;19.55;;;13.00;99.90;;;;;;4974746;28;20122;-75
2022/09/24 02:11:12;;;;;;;28.52;19.60;;;13.00;99.90;;;;;;4973899;28;20023;-75
2022/09/24 02:13:45;;;;;;;31.30;20.30;;;13.00;99.90;;;;;;4974703;28;20101;-75
2022/09/24 02:16:15;;;;;;;29.83;19.65;;;13.00;99.90;;;;;;4973982;28;20058;-75
2022/09/24 02:18:45;;;;;;;27.13;19.25;;;13.10;99.90;;;;;;4974795;28;20027;-75
2022/09/24 02:21:14;;;;;;;29.38;20.20;;;13.10;99.90;;;;;;4972431;28;20451;-75
2022/09/24 02:23:46;;;;;;;29.98;19.05;;;13.10;99.90;;;;;;4974485;28;20028;-75
2022/09/24 02:26:12;;;;;;;26.48;18.88;;;13.10;99.90;;;;;;4973925;28;20488;-75
2022/09/24 02:28:38;;;;;;;26.33;18.40;;;13.10;99.90;;;;;;4973678;28;20065;-74
2022/09/24 02:31:20;;;;;;;27.10;18.67;;;13.10;99.90;;;;;;4993300;28;20054;-75
2022/09/24 02:36:35;;;;;;;26.23;18.17;;;13.20;99.90;;;;;;4977479;28;20520;-75
2022/09/24 02:39:02;;;;;;;26.27;17.23;;;13.20;99.90;;;;;;4973607;28;20027;-75
2022/09/24 02:41:28;;;;;;;25.85;18.02;;;13.20;99.90;;;;;;4974054;28;20047;-75
2022/09/24 02:43:54;;;;;;;26.52;17.27;;;13.20;99.90;;;;;;4973711;28;20038;-75
2022/09/24 02:46:20;;;;;;;25.30;17.27;;;13.30;99.90;;;;;;4973427;28;20027;-75
2022/09/24 02:48:45;;;;;;;25.25;17.70;;;13.20;99.90;;;;;;4973399;28;20030;-75
2022/09/24 02:51:11;;;;;;;24.70;16.77;;;13.20;99.90;;;;;;4972081;28;20037;-75
2022/09/24 02:53:36;;;;;;;23.70;16.77;;;13.20;99.90;;;;;;4988096;28;20062;-75
2022/09/24 02:56:02;;;;;;;25.58;15.88;;;13.30;99.90;;;;;;4973700;28;20219;-75
2022/09/24 02:58:29;;;;;;;25.00;16.17;;;13.30;99.90;;;;;;4973063;28;20369;-75
2022/09/24 03:00:55;;;;;;;22.80;15.60;;;13.30;99.90;;;;;;4972790;28;20089;-75
2022/09/24 03:03:21;;;;;;;22.83;15.52;;;13.30;99.90;;;;;;4987586;28;20035;-75
2022/09/24 03:05:48;;;;;;;23.20;15.70;;;13.30;99.90;;;;;;4973115;28;20472;-75
2022/09/24 03:08:14;;;;;;;20.92;15.20;;;13.30;99.90;;;;;;4973278;28;20125;-75
2022/09/24 03:10:39;;;;;;;24.50;16.88;;;13.30;99.90;;;;;;4972853;28;20106;-75
2022/09/24 03:13:05;;;;;;;23.85;16.38;;;13.30;99.90;;;;;;4973314;28;20018;-75
2022/09/24 03:15:31;;;;;;;21.67;15.70;;;13.40;99.90;;;;;;4972163;28;20077;-75
2022/09/24 03:17:56;;;;;;;21.38;15.75;;;13.30;99.90;;;;;;4986813;28;20062;-75
2022/09/24 03:20:23;;;;;;;25.90;16.70;;;13.30;99.90;;;;;;4972842;28;20109;-75
2022/09/24 03:22:52;;;;;;;22.27;15.88;;;13.30;99.90;;;;;;4973491;28;20029;-75
2022/09/24 03:25:19;;;;;;;21.10;15.40;;;13.40;99.90;;;;;;4971958;28;20035;-75
2022/09/24 03:27:45;;;;;;;21.77;15.02;;;13.30;99.90;;;;;;4972789;28;20434;-75
2022/09/24 03:32:55;;;;;;;23.05;16.85;;;13.30;99.90;;;;;;4973304;28;20066;-75
2022/09/24 03:35:21;;;;;;;23.90;16.15;;;13.30;99.90;;;;;;4972180;28;20074;-75
2022/09/24 03:37:46;;;;;;;22.85;16.73;;;13.30;99.90;;;;;;4973138;28;20089;-75
2022/09/24 03:40:12;;;;;;;24.95;16.98;;;13.30;99.90;;;;;;4972571;28;20034;-75
2022/09/24 03:42:38;;;;;;;24.88;16.15;;;13.30;99.90;;;;;;4972873;28;20395;-75
2022/09/24 03:45:04;;;;;;;22.63;16.45;;;13.30;99.90;;;;;;4986097;28;20050;-75
2022/09/24 03:47:30;;;;;;;23.55;16.27;;;13.30;99.90;;;;;;4972273;28;20023;-75
2022/09/24 03:49:57;;;;;;;23.85;16.13;;;13.30;99.90;;;;;;4971613;28;20033;-75
2022/09/24 03:52:23;;;;;;;24.40;16.95;;;13.30;99.90;;;;;;4972468;28;20052;-75
2022/09/24 03:54:48;;;;;;;22.55;15.90;;;13.30;99.90;;;;;;4971973;28;20030;-75
2022/09/24 03:57:14;;;;;;;24.65;16.67;;;13.30;99.90;;;;;;4972190;28;20038;-75
2022/09/24 03:59:41;;;;;;;23.48;16.13;;;13.30;99.90;;;;;;4971734;28;20145;-75
2022/09/24 04:02:07;;;;;;;25.20;16.73;;;13.30;99.90;;;;;;4972668;28;20073;-75
2022/09/24 04:04:32;;;;;;;23.00;17.35;;;13.30;99.90;;;;;;4971737;28;20474;-75
2022/09/24 04:06:58;;;;;;;26.23;17.48;;;13.30;99.90;;;;;;4972703;28;20161;-75
2022/09/24 04:09:24;;;;;;;27.95;18.13;;;13.30;99.90;;;;;;4972266;28;20031;-74
2022/09/24 04:11:52;;;;;;;24.30;17.63;;;13.30;99.90;;;;;;4972760;28;20093;-75
2022/09/24 04:14:18;;;;;;;28.38;18.33;;;13.20;99.90;;;;;;4969490;28;20390;-75
2022/09/24 04:16:44;;;;;;;26.80;18.52;;;13.20;99.90;;;;;;4971894;28;20038;-75
2022/09/24 04:19:10;;;;;;;29.52;19.70;;;13.20;99.90;;;;;;4972251;28;20026;-76
2022/09/24 04:21:36;;;;;;;29.45;20.75;;;13.20;99.90;;;;;;4972293;28;20068;-75
2022/09/24 04:24:02;;;;;;;29.42;19.15;;;13.20;99.90;;;;;;4972455;28;20027;-75
2022/09/24 04:26:28;;;;;;;28.25;20.05;;;13.20;99.90;;;;;;4969857;28;20411;-75
2022/09/24 04:28:53;;;;;;;31.45;19.92;;;13.20;99.90;;;;;;4971382;28;20051;-75
2022/09/24 04:31:19;;;;;;;32.10;20.40;;;13.20;99.90;;;;;;4972077;28;20073;-74
2022/09/24 04:33:44;;;;;;;27.02;19.13;;;13.20;99.90;;;;;;4972056;28;20023;-75
2022/09/24 04:36:10;;;;;;;29.02;20.05;;;13.20;99.90;;;;;;4971180;28;20105;-75
2022/09/24 04:38:36;;;;;;;31.65;22.00;;;13.20;99.90;;;;;;4976197;28;20023;-75
2022/09/24 04:41:06;;;;;;;30.25;20.15;;;13.20;99.90;;;;;;4977707;28;20030;-75
2022/09/24 04:43:32;;;;;;;34.50;22.05;;;13.20;99.90;;;;;;4977790;28;20442;-75
2022/09/24 04:45:58;;;;;;;31.25;21.40;;;13.20;99.90;;;;;;4978669;28;20120;-75
2022/09/24 04:48:24;;;;;;;32.30;21.27;;;13.20;99.90;;;;;;4977350;28;20077;-75
2022/09/24 04:50:49;;;;;;;34.05;23.48;;;13.20;99.90;;;;;;4993604;28;20038;-75
2022/09/24 04:53:16;;;;;;;32.72;23.83;;;13.20;99.90;;;;;;4977530;28;20118;-75
2022/09/24 04:55:41;;;;;;;32.10;22.05;;;13.30;99.90;;;;;;4977793;28;20062;-75
2022/09/24 04:58:07;;;;;;;33.90;23.23;;;13.30;99.90;;;;;;4992642;28;20027;-75
2022/09/24 05:00:33;;;;;;;35.55;23.60;;;13.30;99.90;;;;;;4978048;28;20023;-75
2022/09/24 05:03:02;;;;;;;34.83;22.80;;;13.30;99.90;;;;;;4978636;28;20026;-74
2022/09/24 05:05:28;;;;;;;37.42;23.77;;;13.30;99.90;;;;;;4978271;28;20023;-75
2022/09/24 05:07:55;;;;;;;32.88;22.65;;;13.30;99.90;;;;;;4991627;28;20030;-75
2022/09/24 05:10:22;;;;;;;31.45;21.88;;;13.30;99.90;;;;;;4977299;28;20402;-75
2022/09/24 05:12:48;;;;;;;32.17;22.33;;;13.30;99.90;;;;;;4977688;28;20035;-75
2022/09/24 05:15:13;;;;;;;27.77;21.02;;;13.30;99.90;;;;;;4977739;28;20042;-75
2022/09/24 05:17:39;;;;;;;33.53;21.13;;;13.30;99.90;;;;;;4991930;28;20030;-75
2022/09/24 05:20:07;;;;;;;36.40;21.27;;;13.30;99.90;;;;;;4977796;28;20078;-74
2022/09/24 05:22:32;;;;;;;26.30;19.77;;;13.30;99.90;;;;;;4978032;28;20030;-75
2022/09/24 05:24:58;;;;;;;29.50;20.15;;;13.30;99.90;;;;;;4977865;28;20023;-75
2022/09/24 05:27:23;;;;;;;30.23;20.50;;;13.30;99.90;;;;;;4977153;28;20063;-75
2022/09/24 05:29:49;;;;;;;26.55;19.00;;;13.30;99.90;;;;;;4978240;28;20026;-75
2022/09/24 05:32:18;;;;;;;30.25;21.25;;;13.30;99.90;;;;;;4977776;28;20134;-75
2022/09/24 05:34:45;;;;;;;30.10;20.13;;;13.30;99.90;;;;;;4977459;28;20461;-75
2022/09/24 05:37:12;;;;;;;27.90;20.45;;;13.30;99.90;;;;;;4976932;28;20118;-75
2022/09/24 05:39:38;;;;;;;28.38;20.35;;;13.30;99.90;;;;;;4978134;28;20023;-75
2022/09/24 05:42:04;;;;;;;28.90;20.83;;;13.30;99.90;;;;;;4978232;28;20022;-75
2022/09/24 05:44:30;;;;;;;31.42;20.52;;;13.30;99.90;;;;;;4976366;28;20055;-75
2022/09/24 05:46:56;;;;;;;29.48;20.23;;;13.30;99.90;;;;;;4977436;28;20027;-75
2022/09/24 05:49:22;;;;;;;33.88;21.63;;;13.30;99.90;;;;;;4974670;28;20098;-75
2022/09/24 05:51:49;;;;;;;34.90;23.98;;;13.30;99.90;;;;;;4974887;28;20027;-75
2022/09/24 05:54:16;;;;;;;30.33;22.10;;;13.30;99.90;;;;;;4974282;28;20031;-74
2022/09/24 05:56:42;;;;;;;35.85;22.98;;;13.30;99.90;;;;;;4975145;28;20046;-75
2022/09/24 05:59:08;;;;;;;32.88;23.00;;;13.40;99.90;;;;;;4973424;28;20455;-75
2022/09/24 06:01:33;;;;;;;33.70;23.63;;;13.30;99.90;;;;;;4973563;28;20057;-75
2022/09/24 06:03:59;;;;;;;33.28;23.67;;;13.40;99.90;;;;;;4973546;28;20542;-74
2022/09/24 06:06:26;;;;;;;36.42;23.95;;;13.30;99.90;;;;;;4969555;28;20030;-75
2022/09/24 06:08:52;;;;;;;35.92;23.85;;;13.40;99.90;;;;;;4988105;28;20035;-75
2022/09/24 06:11:18;;;;;;;33.95;24.13;;;13.40;99.90;;;;;;4972094;28;20081;-75
2022/09/24 06:13:43;;;;;;;33.65;24.10;;;13.40;99.90;;;;;;4989839;28;20082;-75
2022/09/24 06:16:11;;;;;;;37.42;22.83;;;13.40;99.90;;;;;;4974311;28;20077;-75
2022/09/24 06:18:39;;;;;;;31.45;22.35;;;13.40;99.90;;;;;;4974555;28;20074;-75
2022/09/24 06:21:16;;;;;;;31.27;22.27;;;13.40;99.90;;;;;;4973156;28;20093;-75
2022/09/24 06:23:44;;;;;;;32.83;21.70;;;13.40;99.90;;;;;;4973814;28;20027;-75
2022/09/24 06:26:11;;;;;;;32.75;21.95;;;13.40;99.90;;;;;;4972760;28;20033;-75
2022/09/24 06:28:37;;;;;;;32.72;21.30;;;13.40;99.90;;;;;;4974629;28;20065;-75
2022/09/24 06:31:03;;;;;;;32.53;22.48;;;13.40;99.90;;;;;;4972867;28;20027;-75
2022/09/24 06:33:29;;;;;;;31.23;21.80;;;13.40;99.90;;;;;;4972701;28;20070;-75
2022/09/24 06:35:59;;;;;;;32.63;21.80;;;13.40;99.90;;;;;;4972313;28;20109;-75
2022/09/24 06:38:25;;;;;;;30.25;21.60;;;13.40;99.90;;;;;;4974106;28;20023;-75
2022/09/24 06:40:50;;;;;;;30.67;21.75;;;13.40;99.90;;;;;;4973632;28;20034;-74
2022/09/24 06:43:17;;;;;;;33.03;21.10;;;13.50;99.90;;;;;;4974043;28;20023;-75
2022/09/24 06:45:43;;;;;;;31.08;20.52;;;13.40;99.90;;;;;;4972117;28;20105;-75
2022/09/24 06:48:11;;;;;;;33.22;20.83;;;13.50;99.90;;;;;;4973098;28;20027;-75
2022/09/24 06:50:40;;;;;;;32.13;20.83;;;13.50;99.90;;;;;;4972810;28;20033;-75
2022/09/24 06:53:06;;;;;;;30.20;20.63;;;13.50;99.90;;;;;;4973483;28;20118;-75
2022/09/24 06:55:33;;;;;;;30.13;20.90;;;13.50;99.90;;;;;;4973158;28;20038;-75
2022/09/24 06:58:08;;;;;;;30.15;21.27;;;13.50;99.90;;;;;;4988456;28;20490;-75
2022/09/24 07:00:34;;;;;;;29.73;21.15;;;13.50;99.90;;;;;;4972037;28;20122;-75
2022/09/24 07:03:00;;;;;;;27.88;19.73;;;13.50;99.90;;;;;;4972686;28;20033;-75
2022/09/24 07:05:25;;;;;;;29.95;19.77;;;13.60;99.90;;;;;;4988347;28;20106;-75
2022/09/24 07:07:51;;;;;;;28.67;19.67;;;13.60;99.90;;;;;;4972984;28;20035;-75
2022/09/24 07:10:17;;;;;;;29.65;20.27;;;13.60;99.90;;;;;;4973076;28;20503;-75
2022/09/24 07:12:42;;;;;;;30.75;20.17;;;13.60;99.90;;;;;;4973106;28;20122;-75
2022/09/24 07:15:09;;;;;;;26.95;18.85;;;13.60;99.90;;;;;;4973720;28;20468;-75
2022/09/24 07:17:34;;;;;;;28.90;19.95;;;13.60;99.90;;;;;;4972701;28;20069;-75
2022/09/24 07:20:00;;;;;;;26.80;19.23;;;13.60;99.90;;;;;;4971474;28;20074;-75
2022/09/24 07:22:26;;;;;;;28.77;18.38;;;13.60;99.90;;;;;;4972545;28;20027;-75
2022/09/24 07:24:52;;;;;;;27.35;19.30;;;13.70;99.90;;;;;;4970388;28;20427;-75
2022/09/24 07:27:20;;;;;;;23.58;17.90;;;13.70;99.90;;;;;;4973077;28;20027;-75
2022/09/24 07:29:46;;;;;;;27.13;19.25;;;13.70;99.90;;;;;;4972496;28;20026;-75
2022/09/24 07:32:11;;;;;;;28.67;19.35;;;13.70;99.90;;;;;;4971858;28;20038;-75
2022/09/24 07:34:37;;;;;;;27.05;18.27;;;13.70;99.90;;;;;;4971134;28;20386;-74
2022/09/24 07:37:02;;;;;;;27.38;18.90;;;13.70;99.90;;;;;;4973189;28;20097;-75
2022/09/24 07:39:28;;;;;;;26.77;18.02;;;13.70;99.90;;;;;;4971969;28;20041;-74
2022/09/24 07:41:53;;;;;;;25.77;19.42;;;13.70;99.90;;;;;;4973650;28;20034;-75
2022/09/24 07:44:19;;;;;;;24.77;18.00;;;13.70;99.90;;;;;;4972610;28;20023;-75
2022/09/24 07:46:51;;;;;;;26.45;17.92;;;13.80;99.90;;;;;;4971516;28;20030;-75
2022/09/24 07:49:17;;;;;;;25.77;16.80;;;13.80;99.90;;;;;;4986367;28;20069;-75
2022/09/24 07:51:43;;;;;;;25.88;17.92;;;13.80;99.90;;;;;;4973026;28;20038;-75
2022/09/24 07:54:09;;;;;;;25.73;17.75;;;13.80;99.90;;;;;;4972800;28;20027;-75
2022/09/24 07:56:35;;;;;;;23.52;17.48;;;13.80;99.90;;;;;;4972240;28;20070;-75
2022/09/24 07:59:01;;;;;;;23.30;17.02;;;13.80;99.90;;;;;;4972720;28;20054;-75
2022/09/24 08:01:26;;;;;;;22.05;17.70;;;13.80;99.90;;;;;;4971591;28;20546;-75
2022/09/24 08:03:52;;;;;;;22.45;17.50;;;13.80;99.90;;;;;;4971519;28;20026;-75
2022/09/24 08:06:19;;;;;;;22.48;17.35;;;13.80;99.90;;;;;;4972567;28;20034;-75
2022/09/24 08:08:47;;;;;;;22.20;16.40;;;13.80;99.90;;;;;;4971478;28;20046;-75
2022/09/24 08:11:13;;;;;;;21.73;16.13;;;13.80;99.90;;;;;;4972230;28;20050;-75
2022/09/24 08:13:39;;;;;;;24.10;16.23;;;13.90;99.90;;;;;;4971629;28;20056;-75
2022/09/24 08:16:05;;;;;;;22.05;16.60;;;13.90;99.90;;;;;;4970787;28;20109;-75
2022/09/24 08:18:32;;;;;;;23.55;16.98;;;13.90;99.90;;;;;;4970835;28;20179;-75
2022/09/24 08:21:02;;;;;;;24.13;17.08;;;13.90;99.90;;;;;;4970476;28;20046;-75
2022/09/24 08:23:27;;;;;;;25.15;17.27;;;14.00;99.90;;;;;;4971518;28;20387;-75
2022/09/24 08:25:54;;;;;;;22.70;16.95;;;14.00;99.90;;;;;;4972572;28;20089;-75
2022/09/24 08:28:20;;;;;;;26.35;17.65;;;14.00;99.90;;;;;;4969553;28;20368;-75
2022/09/24 08:30:45;;;;;;;23.95;16.83;;;14.00;99.90;;;;;;4972005;28;20085;-75
2022/09/24 08:33:12;;;;;;;25.45;17.27;;;14.00;99.90;;;;;;4971615;28;20033;-75
2022/09/24 08:35:40;;;;;;;23.27;17.08;;;14.10;99.90;;;;;;4970866;28;20073;-75
2022/09/24 08:38:06;;;;;;;21.17;16.10;;;14.10;99.90;;;;;;4963374;28;20556;-75
2022/09/24 08:40:53;;;;;;;27.05;17.05;;;14.10;99.90;;;;;;4971750;28;20019;-74
2022/09/24 08:43:36;;;;;;;23.77;16.90;;;14.20;99.90;;;;;;4972000;28;20033;-74
2022/09/24 08:48:51;;;;;;;23.05;15.93;;;14.10;99.90;;;;;;4971609;28;19972;-74
2022/09/24 08:51:19;;;;;;;21.23;16.23;;;14.10;99.90;;;;;;4971130;28;20031;-74
2022/09/24 08:54:08;;;;;;;24.40;17.38;;;14.10;99.90;;;;;;4971384;28;20126;-74
2022/09/24 08:56:36;;;;;;;24.60;17.10;;;14.10;99.90;;;;;;4972333;28;20483;-74
2022/09/24 08:59:22;;;;;;;24.48;17.40;;;14.10;99.90;;;;;;4971197;28;20078;-74
2022/09/24 09:02:13;;;;;;;27.48;18.40;;;14.10;99.90;;;;;;4971417;28;20037;-74
2022/09/24 09:04:59;;;;;;;23.67;17.50;;;14.20;99.90;;;;;;4970841;28;20510;-74
2022/09/24 09:07:34;;;;;;;26.67;18.27;;;14.20;99.90;;;;;;4970397;28;20069;-75
2022/09/24 09:10:03;;;;;;;23.08;16.90;;;14.20;99.90;;;;;;4972044;28;20479;-74
2022/09/24 09:12:44;;;;;;;27.40;17.70;;;14.20;99.90;;;;;;4971839;28;20540;-74
2022/09/24 09:15:12;;;;;;;27.00;18.83;;;14.20;99.90;;;;;;4970790;28;20031;-74
2022/09/24 09:17:48;;;;;;;25.88;18.80;;;14.20;99.90;;;;;;4971977;28;20027;-74
2022/09/24 09:20:23;;;;;;;27.17;18.55;;;14.20;99.90;;;;;;4970820;28;20043;-75
2022/09/24 09:22:52;;;;;;;26.77;19.60;;;14.20;99.90;;;;;;4971567;28;20037;-74
2022/09/24 09:25:25;;;;;;;26.48;20.00;;;14.20;99.90;;;;;;4973784;28;20030;-74
2022/09/24 09:28:19;;;;;;;25.60;18.80;;;14.20;99.90;;;;;;4975795;28;20039;-74
2022/09/24 09:31:02;;;;;;;25.55;18.67;;;14.20;99.90;;;;;;4973971;28;20043;-74
2022/09/24 09:33:31;;;;;;;28.88;19.92;;;14.20;99.90;;;;;;4960785;28;20613;-74
2022/09/24 09:36:30;;;;;;;26.17;19.25;;;14.20;99.90;;;;;;4975652;28;20087;-74
2022/09/24 09:39:23;;;;;;;25.20;19.05;;;14.20;99.90;;;;;;4975426;28;20387;-74
2022/09/24 09:41:56;;;;;;;26.40;17.70;;;14.30;99.90;;;;;;4975428;28;20023;-74
2022/09/24 09:44:25;;;;;;;23.95;17.65;;;14.30;99.90;;;;;;4974092;28;20037;-74
2022/09/24 09:47:03;;;;;;;22.88;17.55;;;14.30;99.90;;;;;;4974553;28;20034;-74
2022/09/24 09:49:34;;;;;;;26.77;18.63;;;14.40;99.90;;;;;;4973991;28;20179;-74
2022/09/24 09:52:03;;;;;;;25.98;18.83;;;14.30;99.90;;;;;;4974795;28;20058;-74
2022/09/24 09:54:40;;;;;;;26.83;17.90;;;14.30;99.90;;;;;;4974567;28;20027;-74
2022/09/24 09:57:12;;;;;;;23.75;17.67;;;14.40;99.90;;;;;;4974190;28;20078;-74
2022/09/24 09:59:37;;;;;;;24.25;17.38;;;14.40;99.90;;;;;;4974265;28;20562;-74
2022/09/24 10:02:09;;;;;;;25.15;18.88;;;14.50;99.90;;;;;;4974459;28;20105;-74
2022/09/24 10:04:40;;;;;;;24.77;18.10;;;14.50;99.90;;;;;;4974987;28;20479;-74
2022/09/24 10:07:24;;;;;;;24.75;18.33;;;14.50;99.90;;;;;;4974706;28;20038;-74
2022/09/24 10:10:17;;;;;;;24.83;18.10;;;14.60;99.90;;;;;;4962532;28;20019;-74
2022/09/24 10:12:42;;;;;;;;;;;14.60;99.90;;;;;;4967671;28;20053;-74
2022/09/24 10:15:15;;;;;;;26.45;17.92;;;14.60;99.90;;;;;;4974177;28;20008;-74
2022/09/24 10:17:42;;;;;;;25.60;18.73;;;14.60;99.90;;;;;;4974313;28;20030;-75
2022/09/24 10:20:15;;;;;;;24.63;17.25;;;14.60;99.90;;;;;;4974608;28;20046;-74
2022/09/24 10:22:48;;;;;;;27.00;20.05;;;14.70;99.90;;;;;;4974699;28;20419;-75
2022/09/24 10:25:23;;;;;;;24.23;18.58;;;14.70;99.90;;;;;;4974439;28;20031;-75
2022/09/24 10:27:52;;;;;;;24.48;18.35;;;14.80;99.90;;;;;;4973257;28;20042;-74
2022/09/24 10:30:32;;;;;;;25.23;18.95;;;14.80;99.90;;;;;;4972796;28;20058;-74
2022/09/24 10:33:03;;;;;;;26.30;18.98;;;14.80;99.90;;;;;;4974927;28;20078;-75
2022/09/24 10:35:30;;;;;;;26.13;19.63;;;14.90;99.90;;;;;;4973558;28;20568;-75
2022/09/24 10:37:58;;;;;;;27.40;19.30;;;14.90;99.90;;;;;;4974332;28;20023;-74
2022/09/24 10:40:29;;;;;;;25.80;18.27;;;14.90;99.90;;;;;;4988030;28;20121;-74
2022/09/24 10:43:00;;;;;;;26.70;19.88;;;14.90;99.90;;;;;;4973430;28;20063;-75
2022/09/24 10:45:56;;;;;;;27.63;19.83;;;14.90;99.90;;;;;;4973122;28;20034;-75
2022/09/24 10:48:53;;;;;;;26.45;19.10;;;14.90;99.90;;;;;;4965521;28;20077;-75
2022/09/24 10:51:40;;;;;;;27.25;18.70;;;15.00;99.90;;;;;;4969019;28;20082;-75
2022/09/24 10:54:48;;;;;;;25.55;19.55;;;15.00;99.90;;;;;;4973117;28;20033;-74
2022/09/24 10:57:42;;;;;;;27.45;18.88;;;15.00;99.90;;;;;;4974199;28;20054;-75
2022/09/24 11:00:19;;;;;;;27.23;19.08;;;15.00;99.90;;;;;;4972096;28;20471;-74
2022/09/24 11:03:23;;;;;;;25.95;18.73;;;15.00;99.90;;;;;;4972045;28;20406;-74
2022/09/24 11:06:20;;;;;;;25.88;18.20;;;15.00;99.90;;;;;;4969009;28;20023;-74
2022/09/24 11:09:13;;;;;;;27.23;19.02;;;15.00;99.90;;;;;;4972215;28;20019;-74
2022/09/24 11:11:51;;;;;;;;;;;15.00;99.90;;;;;;4974208;28;20027;-74
2022/09/24 11:14:26;;;;;;;25.42;17.75;;;15.00;99.90;;;;;;4973402;28;19906;-74
2022/09/24 11:17:04;;;;;;;27.15;19.58;;;15.00;99.90;;;;;;4973470;28;20092;-75
2022/09/24 11:19:36;;;;;;;24.42;18.55;;;15.00;99.90;;;;;;4973084;28;20030;-75
2022/09/24 11:22:16;;;;;;;29.47;20.07;;;15.10;99.90;;;;;;4972134;28;20035;-75
2022/09/24 11:25:05;;;;;;;23.90;18.58;;;15.10;99.90;;;;;;4972589;28;20294;-74
2022/09/24 11:27:52;;;;;;;26.42;19.80;;;15.00;99.90;;;;;;4973350;28;20023;-74
2022/09/24 11:30:38;;;;;;;26.05;19.63;;;15.10;99.90;;;;;;4973046;28;20082;-74
2022/09/24 11:33:30;;;;;;;27.60;19.95;;;15.10;99.90;;;;;;4973135;28;20118;-75
2022/09/24 11:36:30;;;;;;;25.70;19.42;;;15.20;99.90;;;;;;4971259;28;20030;-74
2022/09/24 11:39:28;;;;;;;27.90;20.25;;;15.20;99.90;;;;;;4972196;28;20039;-74
2022/09/24 11:42:41;;;;;;;25.13;19.63;;;15.30;99.90;;;;;;4973425;28;20028;-75
2022/09/24 11:45:23;;;;;;;24.52;19.20;;;15.30;99.90;;;;;;4971702;28;20026;-74
2022/09/24 11:48:10;;;;;;;25.25;18.35;;;15.30;99.90;;;;;;4972535;28;20069;-75
2022/09/24 11:51:28;;;;;;;23.23;17.98;;;15.30;99.90;;;;;;4971616;28;20027;-75
2022/09/24 11:54:07;;;;;;;22.42;18.17;;;15.40;99.90;;;;;;4981355;28;20514;-75
2022/09/24 11:56:43;;;;;;;22.65;18.00;;;15.40;99.90;;;;;;4972769;28;20118;-75
2022/09/24 11:59:37;;;;;;;25.92;19.38;;;15.30;99.90;;;;;;4972489;28;20019;-74
2022/09/24 12:02:35;;;;;;;25.05;18.75;;;15.30;99.90;;;;;;4971055;28;20034;-75
2022/09/24 12:05:18;;;;;;;27.50;18.20;;;15.40;99.90;;;;;;4965610;28;20572;-75
2022/09/24 12:08:24;;;;;;;26.52;19.30;;;15.40;99.90;;;;;;4971987;28;20379;-75
2022/09/24 12:11:19;;;;;;;25.17;18.67;;;15.50;99.90;;;;;;4972616;28;20022;-75
2022/09/24 12:13:51;;;;;;;29.05;19.48;;;15.50;99.90;;;;;;4973147;28;20073;-75
2022/09/24 12:16:25;;;;;;;25.73;19.77;;;15.50;99.90;;;;;;4970850;28;20039;-75
2022/09/24 12:18:59;;;;;;;23.58;18.60;;;15.50;99.90;;;;;;4972400;28;20035;-74
2022/09/24 12:21:31;;;;;;;25.38;19.33;;;15.60;99.90;;;;;;4986224;28;20093;-75
2022/09/24 12:24:04;;;;;;;25.02;18.98;;;15.50;99.90;;;;;;4964861;28;20026;-75
2022/09/24 12:26:34;;;;;;;24.77;18.05;;;15.60;99.90;;;;;;4970700;28;20030;-75
2022/09/24 12:32:55;;;;;;;25.40;18.70;;;15.60;99.90;;;;;;4972230;28;20069;-75
2022/09/24 12:35:27;;;;;;;26.08;19.63;;;15.70;99.90;;;;;;4970418;28;20418;-75
2022/09/24 12:37:59;;;;;;;25.55;18.25;;;15.70;99.90;;;;;;4971991;28;20049;-75
2022/09/24 12:41:00;;;;;;;26.70;19.13;;;15.70;99.90;;;;;;4972385;28;20058;-75
2022/09/24 12:43:33;;;;;;;23.48;18.10;;;15.70;99.90;;;;;;4956744;28;20019;-74
2022/09/24 12:46:04;;;;;;;23.80;17.60;;;15.80;99.90;;;;;;4972021;28;20023;-75
2022/09/24 12:48:34;;;;;;;26.42;18.95;;;15.80;99.90;;;;;;4986274;28;20031;-75
2022/09/24 12:51:02;;;;;;;24.65;18.70;;;15.80;99.90;;;;;;4971365;28;20023;-75
2022/09/24 12:53:36;;;;;;;26.23;18.75;;;15.80;99.90;;;;;;4971723;28;20042;-74
2022/09/24 12:56:04;;;;;;;25.83;20.10;;;15.80;99.90;;;;;;4972313;28;20117;-75
2022/09/24 12:58:39;;;;;;;23.33;18.35;;;15.90;99.90;;;;;;4973093;28;20034;-75
2022/09/24 13:01:23;;;;;;;23.33;18.40;;;15.80;99.90;;;;;;4976010;28;20402;-74
2022/09/24 13:04:02;;;;;;;22.73;17.70;;;15.90;99.90;;;;;;4975324;28;20031;-74
2022/09/24 13:06:33;;;;;;;24.52;18.20;;;15.80;99.90;;;;;;4974847;28;20038;-75